MWCR 201000Z 17004KT 9999 FEW016 28/24 Q1008

MKJP 200800Z 01009KT 9999 FEW020 FEW024CB SCT034 25/22 Q1008

MWCB 200000Z 10001KT 9999 SCT016CB 26/24 Q1008

MKJS 200800Z 14003KT 9999 FEW022 FEW024CB BKN032 26/23 Q1008